sensor_id;sensor_type;location;lat;lon;timestamp;pressure;altitude;pressure_sealevel;temperature;humidity
60437;BME280;46289;51.992;4.498;2023-03-18T00:00:21;100973.16;;;9.05;83.71
60437;BME280;46289;51.992;4.498;2023-03-18T00:02:26;100982.91;;;9.01;83.76
60437;BME280;46289;51.992;4.498;2023-03-18T00:04:31;100984.81;;;8.96;84.88
60437;BME280;46289;51.992;4.498;2023-03-18T00:06:36;100980.63;;;8.90;85.42
60437;BME280;46289;51.992;4.498;2023-03-18T00:08:45;100979.72;;;8.90;86.09
60437;BME280;46289;51.992;4.498;2023-03-18T00:10:52;100983.38;;;8.86;85.02
60437;BME280;46289;51.992;4.498;2023-03-18T00:13:01;100981.66;;;8.85;85.51
60437;BME280;46289;51.992;4.498;2023-03-18T00:15:10;100986.13;;;8.81;86.09
60437;BME280;46289;51.992;4.498;2023-03-18T00:17:13;100980.88;;;8.81;85.06
60437;BME280;46289;51.992;4.498;2023-03-18T00:19:18;100981.69;;;8.83;85.71
60437;BME280;46289;51.992;4.498;2023-03-18T00:21:22;100984.28;;;8.85;86.08
60437;BME280;46289;51.992;4.498;2023-03-18T00:23:28;100983.47;;;8.83;86.10
60437;BME280;46289;51.992;4.498;2023-03-18T00:25:33;100987.88;;;8.82;86.33
60437;BME280;46289;51.992;4.498;2023-03-18T00:27:38;100985.19;;;8.84;86.85
60437;BME280;46289;51.992;4.498;2023-03-18T00:29:46;100984.34;;;8.82;86.60
60437;BME280;46289;51.992;4.498;2023-03-18T00:31:51;100991.47;;;8.78;86.25
60437;BME280;46289;51.992;4.498;2023-03-18T00:33:56;100981.97;;;8.74;86.62
60437;BME280;46289;51.992;4.498;2023-03-18T00:36:01;100979.41;;;8.72;85.75
60437;BME280;46289;51.992;4.498;2023-03-18T00:38:07;100975.06;;;8.71;85.35
60437;BME280;46289;51.992;4.498;2023-03-18T00:40:21;100982.31;;;8.91;87.95
60437;BME280;46289;51.992;4.498;2023-03-18T00:42:32;100985.28;;;8.81;86.13
60437;BME280;46289;51.992;4.498;2023-03-18T00:44:40;100977.31;;;8.84;86.83
60437;BME280;46289;51.992;4.498;2023-03-18T00:46:48;100978.34;;;8.79;85.87
60437;BME280;46289;51.992;4.498;2023-03-18T00:48:58;100979.31;;;8.75;85.68
60437;BME280;46289;51.992;4.498;2023-03-18T00:51:04;100981.13;;;8.73;87.02
60437;BME280;46289;51.992;4.498;2023-03-18T00:53:12;100977.31;;;8.84;87.24
60437;BME280;46289;51.992;4.498;2023-03-18T00:55:19;100982.34;;;8.90;87.33
60437;BME280;46289;51.992;4.498;2023-03-18T00:57:24;100982.13;;;8.97;87.27
60437;BME280;46289;51.992;4.498;2023-03-18T00:59:29;100978.38;;;9.06;87.33
60437;BME280;46289;51.992;4.498;2023-03-18T01:01:34;100983.75;;;9.01;87.23
60437;BME280;46289;51.992;4.498;2023-03-18T01:03:46;100976.97;;;8.94;86.28
60437;BME280;46289;51.992;4.498;2023-03-18T01:05:51;100976.09;;;8.95;86.52
60437;BME280;46289;51.992;4.498;2023-03-18T01:07:57;100981.16;;;9.00;87.52
60437;BME280;46289;51.992;4.498;2023-03-18T01:10:03;100975.69;;;9.08;87.02
60437;BME280;46289;51.992;4.498;2023-03-18T01:12:11;100980.22;;;9.02;86.67
60437;BME280;46289;51.992;4.498;2023-03-18T01:14:17;100977.56;;;9.04;87.08
60437;BME280;46289;51.992;4.498;2023-03-18T01:16:22;100981.09;;;9.03;86.77
60437;BME280;46289;51.992;4.498;2023-03-18T01:18:28;100979.25;;;9.05;87.44
60437;BME280;46289;51.992;4.498;2023-03-18T01:20:37;100981.09;;;9.03;86.29
60437;BME280;46289;51.992;4.498;2023-03-18T01:22:43;100982.59;;;9.10;86.95
60437;BME280;46289;51.992;4.498;2023-03-18T01:24:48;100983.44;;;9.11;87.41
60437;BME280;46289;51.992;4.498;2023-03-18T01:26:53;100986.03;;;9.12;87.64
60437;BME280;46289;51.992;4.498;2023-03-18T01:28:58;100986.13;;;9.09;86.74
60437;BME280;46289;51.992;4.498;2023-03-18T01:31:04;100985.19;;;9.12;86.61
60437;BME280;46289;51.992;4.498;2023-03-18T01:33:17;100986.03;;;9.12;86.91
60437;BME280;46289;51.992;4.498;2023-03-18T01:35:22;100978.91;;;9.16;87.10
60437;BME280;46289;51.992;4.498;2023-03-18T01:37:33;100989.34;;;9.17;86.38
60437;BME280;46289;51.992;4.498;2023-03-18T01:39:40;100980.41;;;9.25;87.17
60437;BME280;46289;51.992;4.498;2023-03-18T01:41:46;100982.94;;;9.26;86.71
60437;BME280;46289;51.992;4.498;2023-03-18T01:43:51;100987.34;;;9.26;86.48
60437;BME280;46289;51.992;4.498;2023-03-18T01:45:58;100980.41;;;9.25;86.54
60437;BME280;46289;51.992;4.498;2023-03-18T01:48:04;100982.19;;;9.22;86.33
60437;BME280;46289;51.992;4.498;2023-03-18T01:50:10;100981.94;;;9.30;86.88
60437;BME280;46289;51.992;4.498;2023-03-18T01:52:20;100983.81;;;9.27;86.79
60437;BME280;46289;51.992;4.498;2023-03-18T01:54:35;100973.13;;;9.33;86.84
60437;BME280;46289;51.992;4.498;2023-03-18T01:56:43;100970.53;;;9.31;86.10
60437;BME280;46289;51.992;4.498;2023-03-18T01:58:51;100975.84;;;9.30;86.25
60437;BME280;46289;51.992;4.498;2023-03-18T02:01:01;100987.38;;;9.24;86.29
60437;BME280;46289;51.992;4.498;2023-03-18T02:03:06;100983.81;;;9.27;86.62
60437;BME280;46289;51.992;4.498;2023-03-18T02:05:13;100995.25;;;9.24;86.47
60437;BME280;46289;51.992;4.498;2023-03-18T02:07:23;100986.50;;;9.25;86.27
60437;BME280;46289;51.992;4.498;2023-03-18T02:09:31;100982.94;;;9.26;86.12
60437;BME280;46289;51.992;4.498;2023-03-18T02:11:38;100980.94;;;9.34;86.44
60437;BME280;46289;51.992;4.498;2023-03-18T02:13:46;100991.38;;;9.36;85.90
60437;BME280;46289;51.992;4.498;2023-03-18T02:15:56;100986.94;;;9.38;85.83
60437;BME280;46289;51.992;4.498;2023-03-18T02:18:05;100982.44;;;9.41;85.56
60437;BME280;46289;51.992;4.498;2023-03-18T02:20:23;100984.06;;;9.45;85.52
60437;BME280;46289;51.992;4.498;2023-03-18T02:22:32;100978.75;;;9.47;85.62
60437;BME280;46289;51.992;4.498;2023-03-18T02:24:46;100980.97;;;9.59;84.84
60437;BME280;46289;51.992;4.498;2023-03-18T02:26:55;100982.41;;;9.68;84.66
60437;BME280;46289;51.992;4.498;2023-03-18T02:29:05;100989.47;;;9.66;84.56
60437;BME280;46289;51.992;4.498;2023-03-18T02:31:13;100991.13;;;9.68;84.64
60437;BME280;46289;51.992;4.498;2023-03-18T02:33:23;101002.53;;;9.69;84.49
60437;BME280;46289;51.992;4.498;2023-03-18T02:35:30;100991.13;;;9.68;84.92
60437;BME280;46289;51.992;4.498;2023-03-18T02:37:36;100991.66;;;9.80;84.92
60437;BME280;46289;51.992;4.498;2023-03-18T02:39:41;100988.84;;;9.84;84.65
60437;BME280;46289;51.992;4.498;2023-03-18T02:41:54;100980.13;;;9.84;84.45
60437;BME280;46289;51.992;4.498;2023-03-18T02:43:59;100986.97;;;9.88;84.42
60437;BME280;46289;51.992;4.498;2023-03-18T02:46:14;100983.59;;;9.84;84.68
60437;BME280;46289;51.992;4.498;2023-03-18T02:48:28;100988.47;;;9.95;84.76
60437;BME280;46289;51.992;4.498;2023-03-18T02:50:34;100990.31;;;9.93;84.73
60437;BME280;46289;51.992;4.498;2023-03-18T02:52:42;100988.69;;;9.89;84.89
60437;BME280;46289;51.992;4.498;2023-03-18T02:54:48;100990.34;;;9.92;84.77
60437;BME280;46289;51.992;4.498;2023-03-18T02:56:53;100990.22;;;9.95;84.70
60437;BME280;46289;51.992;4.498;2023-03-18T02:59:00;100992.94;;;9.93;85.05
60437;BME280;46289;51.992;4.498;2023-03-18T03:01:08;100998.09;;;9.95;85.01
60437;BME280;46289;51.992;4.498;2023-03-18T03:03:14;101004.22;;;9.95;84.89
60437;BME280;46289;51.992;4.498;2023-03-18T03:05:21;101002.47;;;9.96;85.25
60437;BME280;46289;51.992;4.498;2023-03-18T03:07:27;100994.69;;;9.93;84.87
60437;BME280;46289;51.992;4.498;2023-03-18T03:09:32;100999.19;;;9.89;85.24
60437;BME280;46289;51.992;4.498;2023-03-18T03:11:37;101002.78;;;9.86;85.35
60437;BME280;46289;51.992;4.498;2023-03-18T03:13:43;101003.69;;;9.85;85.41
60437;BME280;46289;51.992;4.498;2023-03-18T03:15:48;101000.31;;;9.82;85.50
60437;BME280;46289;51.992;4.498;2023-03-18T03:17:55;100999.28;;;9.86;85.83
60437;BME280;46289;51.992;4.498;2023-03-18T03:20:01;101005.47;;;9.85;85.66
60437;BME280;46289;51.992;4.498;2023-03-18T03:22:07;101012.41;;;9.86;85.54
60437;BME280;46289;51.992;4.498;2023-03-18T03:24:12;101002.72;;;9.88;86.06
60437;BME280;46289;51.992;4.498;2023-03-18T03:26:17;101001.88;;;9.87;86.23
60437;BME280;46289;51.992;4.498;2023-03-18T03:28:22;101011.50;;;9.87;86.28
60437;BME280;46289;51.992;4.498;2023-03-18T03:30:27;101010.53;;;9.89;86.44
60437;BME280;46289;51.992;4.498;2023-03-18T03:32:33;101018.38;;;9.91;86.94
60437;BME280;46289;51.992;4.498;2023-03-18T03:34:40;101017.53;;;9.91;86.98
60437;BME280;46289;51.992;4.498;2023-03-18T03:36:45;101023.63;;;9.91;87.03
60437;BME280;46289;51.992;4.498;2023-03-18T03:38:50;101025.50;;;9.87;87.55
60437;BME280;46289;51.992;4.498;2023-03-18T03:40:56;101031.66;;;9.86;88.02
60437;BME280;46289;51.992;4.498;2023-03-18T03:43:00;101031.66;;;9.86;88.36
60437;BME280;46289;51.992;4.498;2023-03-18T03:45:07;101024.69;;;9.85;88.33
60437;BME280;46289;51.992;4.498;2023-03-18T03:47:12;101021.97;;;9.88;88.63
60437;BME280;46289;51.992;4.498;2023-03-18T03:49:17;101031.72;;;9.85;88.52
60437;BME280;46289;51.992;4.498;2023-03-18T03:51:25;101031.72;;;9.85;88.60
60437;BME280;46289;51.992;4.498;2023-03-18T03:53:30;101030.09;;;9.81;89.07
60437;BME280;46289;51.992;4.498;2023-03-18T03:55:36;101030.25;;;9.76;89.57
60437;BME280;46289;51.992;4.498;2023-03-18T03:57:42;101026.03;;;9.72;89.83
60437;BME280;46289;51.992;4.498;2023-03-18T03:59:47;101029.59;;;9.70;89.48
60437;BME280;46289;51.992;4.498;2023-03-18T04:01:52;101030.56;;;9.67;89.51
60437;BME280;46289;51.992;4.498;2023-03-18T04:03:57;101021.88;;;9.65;89.42
60437;BME280;46289;51.992;4.498;2023-03-18T04:06:04;101021.91;;;9.63;89.89
60437;BME280;46289;51.992;4.498;2023-03-18T04:08:12;101031.63;;;9.61;89.49
60437;BME280;46289;51.992;4.498;2023-03-18T04:10:19;101026.47;;;9.58;90.31
60437;BME280;46289;51.992;4.498;2023-03-18T04:12:24;101035.25;;;9.57;90.55
60437;BME280;46289;51.992;4.498;2023-03-18T04:14:29;101035.25;;;9.57;90.78
60437;BME280;46289;51.992;4.498;2023-03-18T04:16:34;101036.06;;;9.59;90.73
60437;BME280;46289;51.992;4.498;2023-03-18T04:18:39;101038.69;;;9.59;90.10
60437;BME280;46289;51.992;4.498;2023-03-18T04:20:44;101036.97;;;9.58;90.45
60437;BME280;46289;51.992;4.498;2023-03-18T04:22:50;101037.78;;;9.60;90.91
60437;BME280;46289;51.992;4.498;2023-03-18T04:24:58;101041.44;;;9.56;91.18
60437;BME280;46289;51.992;4.498;2023-03-18T04:27:04;101047.56;;;9.55;91.08
60437;BME280;46289;51.992;4.498;2023-03-18T04:29:09;101050.06;;;9.58;90.57
60437;BME280;46289;51.992;4.498;2023-03-18T04:31:14;101059.81;;;9.55;90.77
60437;BME280;46289;51.992;4.498;2023-03-18T04:33:19;101066.13;;;9.49;90.68
60437;BME280;46289;51.992;4.498;2023-03-18T04:35:24;101080.06;;;9.51;91.08
60437;BME280;46289;51.992;4.498;2023-03-18T04:37:29;101080.91;;;9.52;90.97
60437;BME280;46289;51.992;4.498;2023-03-18T04:39:37;101082.69;;;9.51;90.93
60437;BME280;46289;51.992;4.498;2023-03-18T04:41:45;101081.88;;;9.49;91.27
60437;BME280;46289;51.992;4.498;2023-03-18T04:43:50;101082.72;;;9.50;91.47
60437;BME280;46289;51.992;4.498;2023-03-18T04:45:55;101087.16;;;9.48;91.38
60437;BME280;46289;51.992;4.498;2023-03-18T04:48:00;101085.56;;;9.43;91.08
60437;BME280;46289;51.992;4.498;2023-03-18T04:50:06;101087.25;;;9.44;91.47
60437;BME280;46289;51.992;4.498;2023-03-18T04:52:13;101090.91;;;9.40;92.18
60437;BME280;46289;51.992;4.498;2023-03-18T04:54:18;101090.94;;;9.39;91.76
60437;BME280;46289;51.992;4.498;2023-03-18T04:56:23;101098.00;;;9.37;92.41
60437;BME280;46289;51.992;4.498;2023-03-18T04:58:30;101099.72;;;9.38;92.27
60437;BME280;46289;51.992;4.498;2023-03-18T05:00:35;101103.31;;;9.35;91.87
60437;BME280;46289;51.992;4.498;2023-03-18T05:02:40;101100.72;;;9.34;92.48
60437;BME280;46289;51.992;4.498;2023-03-18T05:04:45;101099.91;;;9.32;92.40
60437;BME280;46289;51.992;4.498;2023-03-18T05:06:52;101096.44;;;9.31;92.27
60437;BME280;46289;51.992;4.498;2023-03-18T05:08:58;101096.56;;;9.27;91.79
60437;BME280;46289;51.992;4.498;2023-03-18T05:11:03;101091.41;;;9.23;92.12
60437;BME280;46289;51.992;4.498;2023-03-18T05:13:09;101094.03;;;9.23;92.50
60437;BME280;46289;51.992;4.498;2023-03-18T05:15:17;101103.69;;;9.21;92.08
60437;BME280;46289;51.992;4.498;2023-03-18T05:17:22;101090.59;;;9.21;92.74
60437;BME280;46289;51.992;4.498;2023-03-18T05:19:27;101086.97;;;9.26;92.72
60437;BME280;46289;51.992;4.498;2023-03-18T05:21:31;101084.50;;;9.21;93.04
60437;BME280;46289;51.992;4.498;2023-03-18T05:23:37;101085.34;;;9.21;92.49
60437;BME280;46289;51.992;4.498;2023-03-18T05:25:42;101084.56;;;9.19;92.96
60437;BME280;46289;51.992;4.498;2023-03-18T05:27:47;101097.72;;;9.18;92.26
60437;BME280;46289;51.992;4.498;2023-03-18T05:29:55;101083.75;;;9.17;92.86
60437;BME280;46289;51.992;4.498;2023-03-18T05:32:03;101082.81;;;9.18;92.76
60437;BME280;46289;51.992;4.498;2023-03-18T05:34:07;101082.81;;;9.18;93.24
60437;BME280;46289;51.992;4.498;2023-03-18T05:36:12;101085.34;;;9.21;93.33
60437;BME280;46289;51.992;4.498;2023-03-18T05:38:18;101084.41;;;9.24;93.15
60437;BME280;46289;51.992;4.498;2023-03-18T05:40:23;101085.28;;;9.25;92.92
60437;BME280;46289;51.992;4.498;2023-03-18T05:42:27;101086.97;;;9.26;93.05
60437;BME280;46289;51.992;4.498;2023-03-18T05:44:33;101081.75;;;9.26;93.10
60437;BME280;46289;51.992;4.498;2023-03-18T05:46:37;101081.00;;;9.22;93.42
60437;BME280;46289;51.992;4.498;2023-03-18T05:48:45;101081.00;;;9.22;93.34
60437;BME280;46289;51.992;4.498;2023-03-18T05:50:52;101077.56;;;9.20;93.28
60437;BME280;46289;51.992;4.498;2023-03-18T05:52:59;101074.94;;;9.20;92.98
60437;BME280;46289;51.992;4.498;2023-03-18T05:55:05;101076.78;;;9.16;93.42
60437;BME280;46289;51.992;4.498;2023-03-18T05:57:10;101083.00;;;9.14;93.61
60437;BME280;46289;51.992;4.498;2023-03-18T05:59:15;101088.22;;;9.14;93.73
60437;BME280;46289;51.992;4.498;2023-03-18T06:01:20;101085.75;;;9.09;93.74
60437;BME280;46289;51.992;4.498;2023-03-18T06:03:26;101093.75;;;9.05;93.89
60437;BME280;46289;51.992;4.498;2023-03-18T06:05:34;101096.47;;;9.01;93.87
60437;BME280;46289;51.992;4.498;2023-03-18T06:07:39;101094.75;;;9.00;93.86
60437;BME280;46289;51.992;4.498;2023-03-18T06:09:44;101103.38;;;9.04;94.29
60437;BME280;46289;51.992;4.498;2023-03-18T06:11:49;101099.28;;;8.95;93.90
60437;BME280;46289;51.992;4.498;2023-03-18T06:13:54;101095.94;;;8.90;93.80
60437;BME280;46289;51.992;4.498;2023-03-18T06:16:00;101107.41;;;8.86;93.53
60437;BME280;46289;51.992;4.498;2023-03-18T06:18:04;101107.50;;;8.83;93.34
60437;BME280;46289;51.992;4.498;2023-03-18T06:20:13;101116.16;;;8.85;93.81
60437;BME280;46289;51.992;4.498;2023-03-18T06:22:22;101112.69;;;8.85;93.63
60437;BME280;46289;51.992;4.498;2023-03-18T06:24:27;101123.03;;;8.89;93.41
60437;BME280;46289;51.992;4.498;2023-03-18T06:26:32;101133.47;;;8.91;93.64
60437;BME280;46289;51.992;4.498;2023-03-18T06:28:37;101129.94;;;8.92;93.85
60437;BME280;46289;51.992;4.498;2023-03-18T06:30:43;101137.81;;;8.92;93.93
60437;BME280;46289;51.992;4.498;2023-03-18T06:32:48;101132.56;;;8.92;94.12
60437;BME280;46289;51.992;4.498;2023-03-18T06:34:54;101140.25;;;8.98;94.20
60437;BME280;46289;51.992;4.498;2023-03-18T06:36:59;101141.78;;;9.05;93.95
60437;BME280;46289;51.992;4.498;2023-03-18T06:39:06;101146.94;;;9.08;93.95
60437;BME280;46289;51.992;4.498;2023-03-18T06:41:11;101138.81;;;9.17;94.61
60437;BME280;46289;51.992;4.498;2023-03-18T06:43:17;101148.28;;;9.21;94.08
60437;BME280;46289;51.992;4.498;2023-03-18T06:45:22;101155.03;;;9.30;94.69
60437;BME280;46289;51.992;4.498;2023-03-18T06:47:27;101143.38;;;9.40;94.50
60437;BME280;46289;51.992;4.498;2023-03-18T06:49:32;101152.84;;;9.44;94.11
60437;BME280;46289;51.992;4.498;2023-03-18T06:51:37;101147.50;;;9.48;93.79
60437;BME280;46289;51.992;4.498;2023-03-18T06:53:42;101153.41;;;9.54;93.67
60437;BME280;46289;51.992;4.498;2023-03-18T06:55:50;101153.38;;;9.56;93.52
60437;BME280;46289;51.992;4.498;2023-03-18T06:57:57;101156.00;;;9.56;93.65
60437;BME280;46289;51.992;4.498;2023-03-18T07:00:03;101157.59;;;9.61;93.73
60437;BME280;46289;51.992;4.498;2023-03-18T07:02:10;101156.66;;;9.62;93.81
60437;BME280;46289;51.992;4.498;2023-03-18T07:04:15;101157.38;;;9.67;93.40
60437;BME280;46289;51.992;4.498;2023-03-18T07:06:20;101160.72;;;9.73;93.37
60437;BME280;46289;51.992;4.498;2023-03-18T07:08:25;101161.22;;;9.84;93.31
60437;BME280;46289;51.992;4.498;2023-03-18T07:10:30;101162.63;;;9.94;92.83
60437;BME280;46289;51.992;4.498;2023-03-18T07:12:38;101159.09;;;9.95;92.52
60437;BME280;46289;51.992;4.498;2023-03-18T07:14:43;101152.09;;;9.96;92.50
60437;BME280;46289;51.992;4.498;2023-03-18T07:16:47;101162.63;;;9.94;92.31
60437;BME280;46289;51.992;4.498;2023-03-18T07:18:52;101164.28;;;9.98;92.32
60437;BME280;46289;51.992;4.498;2023-03-18T07:20:58;101160.69;;;10.01;92.41
60437;BME280;46289;51.992;4.498;2023-03-18T07:23:03;101159.72;;;10.03;91.95
60437;BME280;46289;51.992;4.498;2023-03-18T07:25:11;101168.38;;;10.05;91.77
60437;BME280;46289;51.992;4.498;2023-03-18T07:27:16;101163.13;;;10.05;91.76
60437;BME280;46289;51.992;4.498;2023-03-18T07:29:32;101161.28;;;10.09;91.69
60437;BME280;46289;51.992;4.498;2023-03-18T07:31:40;101167.19;;;10.16;91.38
60437;BME280;46289;51.992;4.498;2023-03-18T07:33:45;101166.06;;;10.23;91.21
60437;BME280;46289;51.992;4.498;2023-03-18T07:35:50;101160.63;;;10.29;90.71
60437;BME280;46289;51.992;4.498;2023-03-18T07:37:56;101158.50;;;10.40;90.34
60437;BME280;46289;51.992;4.498;2023-03-18T07:40:02;101159.81;;;10.53;89.58
60437;BME280;46289;51.992;4.498;2023-03-18T07:42:08;101160.31;;;10.63;89.13
60437;BME280;46289;51.992;4.498;2023-03-18T07:44:13;101161.66;;;10.75;88.40
60437;BME280;46289;51.992;4.498;2023-03-18T07:46:20;101157.44;;;10.94;87.73
60437;BME280;46289;51.992;4.498;2023-03-18T07:48:26;101170.31;;;11.02;86.75
60437;BME280;46289;51.992;4.498;2023-03-18T07:50:31;101171.56;;;10.92;86.94
60437;BME280;46289;51.992;4.498;2023-03-18T07:52:36;101170.88;;;11.10;86.62
60437;BME280;46289;51.992;4.498;2023-03-18T07:54:43;101182.59;;;11.25;85.72
60437;BME280;46289;51.992;4.498;2023-03-18T07:56:50;101177.78;;;11.36;85.54
60437;BME280;46289;51.992;4.498;2023-03-18T07:58:55;101183.31;;;11.52;84.97
60437;BME280;46289;51.992;4.498;2023-03-18T08:01:00;101177.63;;;11.63;84.12
60437;BME280;46289;51.992;4.498;2023-03-18T08:03:09;101181.34;;;11.79;83.92
60437;BME280;46289;51.992;4.498;2023-03-18T08:05:16;101178.78;;;12.22;82.96
60437;BME280;46289;51.992;4.498;2023-03-18T08:07:23;101175.56;;;12.36;81.93
60437;BME280;46289;51.992;4.498;2023-03-18T08:09:28;101155.91;;;12.63;81.86
60437;BME280;46289;51.992;4.498;2023-03-18T08:11:33;101166.41;;;12.65;79.90
60437;BME280;46289;51.992;4.498;2023-03-18T08:13:38;101164.75;;;12.01;80.81
60437;BME280;46289;51.992;4.498;2023-03-18T08:15:44;101157.44;;;12.28;81.53
60437;BME280;46289;51.992;4.498;2023-03-18T08:17:49;101152.75;;;12.35;80.55
60437;BME280;46289;51.992;4.498;2023-03-18T08:19:59;101156.94;;;12.40;80.77
60437;BME280;46289;51.992;4.498;2023-03-18T08:22:05;101160.28;;;12.44;79.92
60437;BME280;46289;51.992;4.498;2023-03-18T08:24:11;101172.13;;;12.74;79.17
60437;BME280;46289;51.992;4.498;2023-03-18T08:26:16;101166.69;;;12.98;78.94
60437;BME280;46289;51.992;4.498;2023-03-18T08:28:22;101167.69;;;12.95;78.57
60437;BME280;46289;51.992;4.498;2023-03-18T08:30:28;101177.59;;;13.09;78.63
60437;BME280;46289;51.992;4.498;2023-03-18T08:32:35;101169.84;;;13.06;77.51
60437;BME280;46289;51.992;4.498;2023-03-18T08:34:43;101175.53;;;13.16;77.69
60437;BME280;46289;51.992;4.498;2023-03-18T08:36:51;101194.44;;;13.26;77.84
60437;BME280;46289;51.992;4.498;2023-03-18T08:38:56;101189.06;;;13.08;77.40
60437;BME280;46289;51.992;4.498;2023-03-18T08:41:00;101195.28;;;13.07;77.69
60437;BME280;46289;51.992;4.498;2023-03-18T08:43:06;101195.31;;;12.87;78.19
60437;BME280;46289;51.992;4.498;2023-03-18T08:45:11;101202.19;;;12.70;78.90
60437;BME280;46289;51.992;4.498;2023-03-18T08:47:16;101217.00;;;12.52;79.31
60437;BME280;46289;51.992;4.498;2023-03-18T08:49:23;101211.03;;;12.69;79.75
60437;BME280;46289;51.992;4.498;2023-03-18T08:51:28;101208.88;;;12.59;79.52
60437;BME280;46289;51.992;4.498;2023-03-18T08:53:37;101210.94;;;12.30;80.10
60437;BME280;46289;51.992;4.498;2023-03-18T08:55:42;101212.47;;;12.36;80.70
60437;BME280;46289;51.992;4.498;2023-03-18T08:57:47;101221.19;;;12.38;79.73
60437;BME280;46289;51.992;4.498;2023-03-18T08:59:54;101228.25;;;12.15;80.79
60437;BME280;46289;51.992;4.498;2023-03-18T09:01:59;101231.53;;;12.20;81.21
60437;BME280;46289;51.992;4.498;2023-03-18T09:04:06;101228.97;;;12.19;81.36
60437;BME280;46289;51.992;4.498;2023-03-18T09:06:17;101234.53;;;12.11;81.13
60437;BME280;46289;51.992;4.498;2023-03-18T09:08:23;101232.22;;;12.66;79.60
60437;BME280;46289;51.992;4.498;2023-03-18T09:10:33;101227.47;;;12.95;78.78
60437;BME280;46289;51.992;4.498;2023-03-18T09:12:42;101230.66;;;12.83;77.97
60437;BME280;46289;51.992;4.498;2023-03-18T09:14:47;101226.38;;;12.60;79.03
60437;BME280;46289;51.992;4.498;2023-03-18T09:16:53;101227.69;;;12.49;78.94
60437;BME280;46289;51.992;4.498;2023-03-18T09:18:58;101224.97;;;12.92;78.13
60437;BME280;46289;51.992;4.498;2023-03-18T09:21:03;101221.09;;;13.01;76.58
60437;BME280;46289;51.992;4.498;2023-03-18T09:23:09;101228.78;;;13.05;77.15
60437;BME280;46289;51.992;4.498;2023-03-18T09:25:15;101218.88;;;13.10;76.72
60437;BME280;46289;51.992;4.498;2023-03-18T09:27:23;101214.69;;;13.06;76.24
60437;BME280;46289;51.992;4.498;2023-03-18T09:29:28;101220.50;;;12.53;77.78
60437;BME280;46289;51.992;4.498;2023-03-18T09:31:32;101212.16;;;13.03;77.59
60437;BME280;46289;51.992;4.498;2023-03-18T09:33:38;101216.94;;;13.34;76.17
60437;BME280;46289;51.992;4.498;2023-03-18T09:35:47;101227.66;;;13.50;75.84
60437;BME280;46289;51.992;4.498;2023-03-18T09:37:55;101232.66;;;13.56;74.71
60437;BME280;46289;51.992;4.498;2023-03-18T09:40:00;101224.50;;;13.61;75.28
60437;BME280;46289;51.992;4.498;2023-03-18T09:42:20;101229.00;;;13.78;73.49
60437;BME280;46289;51.992;4.498;2023-03-18T09:44:31;101223.63;;;13.79;73.81
60437;BME280;46289;51.992;4.498;2023-03-18T09:46:55;101219.81;;;13.49;74.32
60437;BME280;46289;51.992;4.498;2023-03-18T09:49:22;101213.97;;;13.22;75.15
60437;BME280;46289;51.992;4.498;2023-03-18T09:51:42;101219.03;;;13.07;75.76
60437;BME280;46289;51.992;4.498;2023-03-18T09:53:54;101223.25;;;13.11;76.42
60437;BME280;46289;51.992;4.498;2023-03-18T09:56:01;101226.16;;;13.24;76.37
60437;BME280;46289;51.992;4.498;2023-03-18T09:58:14;101228.59;;;13.30;76.77
60437;BME280;46289;51.992;4.498;2023-03-18T10:00:26;101221.72;;;13.26;76.07
60437;BME280;46289;51.992;4.498;2023-03-18T10:02:35;101218.22;;;13.05;76.52
60437;BME280;46289;51.992;4.498;2023-03-18T10:04:47;101223.47;;;12.86;77.01
60437;BME280;46289;51.992;4.498;2023-03-18T10:06:58;101226.44;;;12.79;77.06
60437;BME280;46289;51.992;4.498;2023-03-18T10:09:08;101223.16;;;12.73;77.76
60437;BME280;46289;51.992;4.498;2023-03-18T10:11:23;101236.53;;;12.89;77.51
60437;BME280;46289;51.992;4.498;2023-03-18T10:13:34;101236.66;;;12.86;77.09
60437;BME280;46289;51.992;4.498;2023-03-18T10:15:49;101235.78;;;13.06;77.28
60437;BME280;46289;51.992;4.498;2023-03-18T10:18:00;101230.09;;;13.15;75.99
60437;BME280;46289;51.992;4.498;2023-03-18T10:20:15;101229.28;;;13.13;75.83
60437;BME280;46289;51.992;4.498;2023-03-18T10:22:36;101229.81;;;13.22;76.35
60437;BME280;46289;51.992;4.498;2023-03-18T10:24:54;101223.34;;;13.29;76.18
60437;BME280;46289;51.992;4.498;2023-03-18T10:27:13;101229.69;;;13.25;76.13
60437;BME280;46289;51.992;4.498;2023-03-18T10:29:25;101236.72;;;13.24;76.14
60437;BME280;46289;51.992;4.498;2023-03-18T10:31:48;101234.31;;;13.20;75.88
60437;BME280;46289;51.992;4.498;2023-03-18T10:33:57;101234.78;;;13.29;75.55
60437;BME280;46289;51.992;4.498;2023-03-18T10:36:05;101233.88;;;13.49;74.45
60437;BME280;46289;51.992;4.498;2023-03-18T10:38:18;101240.13;;;13.66;74.15
60437;BME280;46289;51.992;4.498;2023-03-18T10:40:26;101236.59;;;13.67;73.84
60437;BME280;46289;51.992;4.498;2023-03-18T10:42:36;101229.41;;;13.69;74.33
60437;BME280;46289;51.992;4.498;2023-03-18T10:44:43;101237.16;;;13.54;74.74
60437;BME280;46289;51.992;4.498;2023-03-18T10:46:57;101236.34;;;13.33;74.12
60437;BME280;46289;51.992;4.498;2023-03-18T10:49:08;101242.28;;;13.38;74.67
60437;BME280;46289;51.992;4.498;2023-03-18T10:51:25;101243.00;;;13.42;74.49
60437;BME280;46289;51.992;4.498;2023-03-18T10:53:39;101246.53;;;13.22;74.11
60437;BME280;46289;51.992;4.498;2023-03-18T10:55:56;101248.06;;;13.28;74.44
60437;BME280;46289;51.992;4.498;2023-03-18T10:58:14;101244.78;;;13.21;75.07
60437;BME280;46289;51.992;4.498;2023-03-18T11:00:26;101246.63;;;13.19;74.73
60437;BME280;46289;51.992;4.498;2023-03-18T11:02:37;101252.78;;;13.20;75.25
60437;BME280;46289;51.992;4.498;2023-03-18T11:04:46;101241.13;;;13.05;75.38
60437;BME280;46289;51.992;4.498;2023-03-18T11:06:55;101245.75;;;13.00;75.70
60437;BME280;46289;51.992;4.498;2023-03-18T11:09:05;101245.75;;;13.00;76.17
60437;BME280;46289;51.992;4.498;2023-03-18T11:11:21;101253.81;;;12.76;77.89